Flight Track Log - Related Links

Times and Time Zones

All times are in EDT time to prevent confusion due to time zone crossing. See the CTL16 flight status page for this flight to view local times or setup timezone preferences in your user account.

Time Position Orientation Groundspeed Altitude Reporting Facility
EDT Latitude Longitude Course Direction KTS MPH feet Rate Location/Type
Mon 08:32:31 PM 39.3833 -84.4500 32° Northeast 181 208 1,800  Level Cincinnati TRACON
Mon 08:33:25 PM 39.4189 -84.4214 32° Northeast 183 211 2,100 364 Climbing Indianapolis Center
Mon 08:34:10 PM 39.4442 -84.3928 41° Northeast 188 216 2,400 517 Climbing Indianapolis Center
Mon 08:35:21 PM 39.4917 -84.3256 48° Northeast 194 223 3,100 537 Climbing Indianapolis Center
Mon 08:36:13 PM 39.5214 -84.2786 51° Northeast 193 222 3,500 368 Climbing Indianapolis Center
Mon 08:37:15 PM 39.5572 -84.2242 50° Northeast 194 223 3,800 390 Climbing Indianapolis Center
Mon 08:38:16 PM 39.5969 -84.1733 45° Northeast 197 227 4,300 390 Climbing Indianapolis Center
Mon 08:39:18 PM 39.6367 -84.1239 44° Northeast 196 226 4,600 341 Climbing Indianapolis Center
Mon 08:40:19 PM 39.6739 -84.0728 47° Northeast 196 226 5,000 614 Climbing Indianapolis Center
Mon 08:41:25 PM 39.7150 -84.0192 45° Northeast 184 212 5,900 942 Climbing Indianapolis Center
Mon 08:42:20 PM 39.7428 -83.9847 44° Northeast 152 175 6,900 574 Climbing Indianapolis Center
Mon 08:43:20 PM 39.7753 -83.9428 45° Northeast 158 182 7,000 94 Climbing Indianapolis Center
Mon 08:44:27 PM 39.8169 -83.8911 44° Northeast 199 229 7,100  Climbing Indianapolis Center
Mon 08:45:27 PM 39.8514 -83.8458 45° Northeast 189 217 7,000  Descending Indianapolis Center
Mon 08:46:28 PM 39.8889 -83.7936 47° Northeast 194 223 7,100  Climbing Indianapolis Center
Mon 08:47:29 PM 39.9333 -83.7372 44° Northeast 194 223 7,000 -49 Descending Indianapolis Center
Mon 08:48:30 PM 39.9728 -83.6850 45° Northeast 196 226 7,000  Level Indianapolis Center
Mon 08:49:31 PM 40.0097 -83.6381 44° Northeast 193 222 7,000 48 Level Indianapolis Center
Mon 08:50:34 PM 40.0522 -83.5803 46° Northeast 197 227 7,100  Climbing Indianapolis Center
Mon 08:51:35 PM 40.0908 -83.5283 46° Northeast 197 227 7,000  Descending Indianapolis Center
Mon 08:52:36 PM 40.1306 -83.4756 45° Northeast 199 229 7,100  Climbing Indianapolis Center
Mon 08:53:38 PM 40.1692 -83.4242 45° Northeast 198 228 7,000 -49 Descending Indianapolis Center
Mon 08:54:39 PM 40.2094 -83.3742 43° Northeast 198 228 7,000  Level Indianapolis Center
Mon 08:55:47 PM 40.2550 -83.3161 44° Northeast 199 229 7,000  Level Indianapolis Center
Mon 08:56:48 PM 40.2944 -83.2633 46° Northeast 200 230 7,000  Level Indianapolis Center
Mon 08:57:43 PM 40.3283 -83.2194 45° Northeast 197 227 7,000  Level Indianapolis Center
Mon 08:58:44 PM 40.3681 -83.1686 44° Northeast 197 227 7,000  Level Indianapolis Center
Mon 08:59:46 PM 40.4081 -83.1192 43° Northeast 196 226 7,000  Level Indianapolis Center
Mon 09:00:47 PM 40.4486 -83.0694 43° Northeast 197 227 7,000  Level Indianapolis Center
Mon 09:01:48 PM 40.4883 -83.0175 45° Northeast 199 229 7,000  Level Indianapolis Center
Mon 09:02:49 PM 40.5322 -82.9611 44° Northeast 198 228 7,000 -488 Level Indianapolis Center
Mon 09:03:51 PM 40.5756 -82.9039 45° Northeast 214 246 6,000 -732 Descending Indianapolis Center
Mon 09:04:52 PM 40.6194 -82.8467 45° Northeast 219 252 5,500 -492 Descending Indianapolis Center
Mon 09:05:53 PM 40.6619 -82.7906 45° Northeast 217 250 5,000 -244 Descending Indianapolis Center
Mon 09:06:55 PM 40.7047 -82.7381 43° Northeast 210 242 5,000 -69 Level Indianapolis Center
Mon 09:07:20 PM 40.7142 -82.7225 51° Northeast 207 238 4,900 -107 Descending Cleveland Center
Mon 09:07:51 PM 40.7417 -82.6933 39° Northeast 202 232 4,900  Level Cleveland Center
Mon 09:08:45 PM 40.7781 -82.6450 45° Northeast 201 231 4,900  Level Cleveland Center
Mon 09:09:52 PM 40.8186 -82.5914 45° Northeast 201 231 4,900  Level Cleveland Center
Mon 09:10:59 PM 40.8656 -82.5269 46° Northeast 203 234 4,900  Level Cleveland Center
Mon 09:11:53 PM 40.9019 -82.4786 45° Northeast 201 231 4,900  Level Cleveland Center
Mon 09:13:00 PM 40.9467 -82.4222 44° Northeast 203 234 4,900 47 Level Cleveland Center
Mon 09:14:01 PM 40.9831 -82.3656 50° Northeast 201 231 5,000  Climbing Cleveland Center
Mon 09:15:07 PM 41.0297 -82.3089 42° Northeast 203 234 4,900 -94 Descending Cleveland Center
Mon 09:16:08 PM 41.0722 -82.2522 45° Northeast 221 254 4,800 -209 Descending Cleveland Center
Mon 09:17:02 PM 41.0939 -82.1922 64° Northeast 229 264 4,500 -365 Descending Cleveland Center
Mon 09:18:03 PM 41.1283 -82.1214 57° Northeast 225 259 4,100 -569 Descending Cleveland Center
Mon 09:18:58 PM 41.1606 -82.0531 58° Northeast 233 268 3,400 -661 Descending Cleveland Center
Mon 09:19:52 PM 41.1822 -81.9819 68° East 232 267 2,900 -248 Descending Cleveland Center
Mon 09:20:59 PM 41.2083 -81.8969 68° East 209 241 2,900 47 Level Cleveland Center
Mon 09:22:00 PM 41.2381 -81.8339 58° Northeast 208 239 3,000  Climbing Cleveland Center
Mon 09:22:54 PM 41.2719 -81.7794 50° Northeast 208 239 2,900  Descending Cleveland Center
Mon 09:24:07 PM 41.3144 -81.7139 49° Northeast 197 227 3,000 -180 Climbing Cleveland Center
Mon 09:25:07 PM 41.3628 -81.6703 34° Northeast 210 242 2,500 -496 Descending Cleveland Center
Mon 09:26:08 PM 41.4089 -81.6489 19° North 182 209 2,000 -492 Descending Cleveland Center
Mon 09:27:09 PM 41.4589 -81.6444 North 169 194 1,500 -409 Descending Cleveland Center
Mon 09:29:04 PM 41.5275 -81.6675 346° North 116 133 800 -365 Descending Cleveland Center

Login

Don't have an account? Register now (free) for customized features, flight alerts, and more!